sensor_id;sensor_type;location;lat;lon;timestamp;temperature;humidity
12268;DHT22;6196;48.398;11.736;2023-05-14T00:01:02;11.10;99.90
12268;DHT22;6196;48.398;11.736;2023-05-14T00:03:30;11.10;99.90
12268;DHT22;6196;48.398;11.736;2023-05-14T00:05:56;11.10;99.90
12268;DHT22;6196;48.398;11.736;2023-05-14T00:08:23;11.10;99.90
12268;DHT22;6196;48.398;11.736;2023-05-14T00:10:51;11.10;99.90
12268;DHT22;6196;48.398;11.736;2023-05-14T00:13:18;11.10;99.90
12268;DHT22;6196;48.398;11.736;2023-05-14T00:15:44;11.20;99.90
12268;DHT22;6196;48.398;11.736;2023-05-14T00:18:11;11.20;99.90
12268;DHT22;6196;48.398;11.736;2023-05-14T00:20:40;11.10;99.90
12268;DHT22;6196;48.398;11.736;2023-05-14T00:23:07;11.20;99.90
12268;DHT22;6196;48.398;11.736;2023-05-14T00:25:34;11.20;99.90
12268;DHT22;6196;48.398;11.736;2023-05-14T00:28:02;11.20;99.90
12268;DHT22;6196;48.398;11.736;2023-05-14T00:30:29;11.20;99.90
12268;DHT22;6196;48.398;11.736;2023-05-14T00:32:56;11.10;99.90
12268;DHT22;6196;48.398;11.736;2023-05-14T00:35:23;11.10;99.90
12268;DHT22;6196;48.398;11.736;2023-05-14T00:37:50;11.00;99.90
12268;DHT22;6196;48.398;11.736;2023-05-14T00:40:18;11.10;99.90
12268;DHT22;6196;48.398;11.736;2023-05-14T00:42:45;11.10;99.90
12268;DHT22;6196;48.398;11.736;2023-05-14T00:45:12;11.10;99.90
12268;DHT22;6196;48.398;11.736;2023-05-14T00:47:39;11.10;99.90
12268;DHT22;6196;48.398;11.736;2023-05-14T00:50:07;11.10;99.90
12268;DHT22;6196;48.398;11.736;2023-05-14T00:52:36;11.10;99.90
12268;DHT22;6196;48.398;11.736;2023-05-14T00:55:04;11.00;99.90
12268;DHT22;6196;48.398;11.736;2023-05-14T00:57:35;11.00;99.90
12268;DHT22;6196;48.398;11.736;2023-05-14T01:00:03;11.00;99.90
12268;DHT22;6196;48.398;11.736;2023-05-14T01:02:30;11.00;99.90
12268;DHT22;6196;48.398;11.736;2023-05-14T01:04:57;10.90;99.90
12268;DHT22;6196;48.398;11.736;2023-05-14T01:10:41;10.90;99.90
12268;DHT22;6196;48.398;11.736;2023-05-14T01:13:56;10.80;99.90
12268;DHT22;6196;48.398;11.736;2023-05-14T01:16:44;10.80;99.90
12268;DHT22;6196;48.398;11.736;2023-05-14T01:19:43;10.80;99.90
12268;DHT22;6196;48.398;11.736;2023-05-14T01:22:10;10.80;99.90
12268;DHT22;6196;48.398;11.736;2023-05-14T01:24:37;10.80;99.90
12268;DHT22;6196;48.398;11.736;2023-05-14T01:27:30;10.80;99.90
12268;DHT22;6196;48.398;11.736;2023-05-14T01:30:08;10.80;99.90
12268;DHT22;6196;48.398;11.736;2023-05-14T01:32:59;10.80;99.90
12268;DHT22;6196;48.398;11.736;2023-05-14T01:35:29;10.80;99.90
12268;DHT22;6196;48.398;11.736;2023-05-14T01:37:59;10.80;99.90
12268;DHT22;6196;48.398;11.736;2023-05-14T01:40:28;10.80;99.90
12268;DHT22;6196;48.398;11.736;2023-05-14T01:42:55;10.80;99.90
12268;DHT22;6196;48.398;11.736;2023-05-14T01:45:23;10.70;99.90
12268;DHT22;6196;48.398;11.736;2023-05-14T01:47:51;10.90;99.90
12268;DHT22;6196;48.398;11.736;2023-05-14T01:50:18;10.90;99.90
12268;DHT22;6196;48.398;11.736;2023-05-14T01:52:45;10.90;99.90
12268;DHT22;6196;48.398;11.736;2023-05-14T01:55:13;10.90;99.90
12268;DHT22;6196;48.398;11.736;2023-05-14T01:57:41;10.80;99.90
12268;DHT22;6196;48.398;11.736;2023-05-14T02:00:08;10.80;99.90
12268;DHT22;6196;48.398;11.736;2023-05-14T02:02:35;10.70;99.90
12268;DHT22;6196;48.398;11.736;2023-05-14T02:05:02;10.70;99.90
12268;DHT22;6196;48.398;11.736;2023-05-14T02:07:32;10.80;99.90
12268;DHT22;6196;48.398;11.736;2023-05-14T02:09:59;10.80;99.90
12268;DHT22;6196;48.398;11.736;2023-05-14T02:12:26;10.70;99.90
12268;DHT22;6196;48.398;11.736;2023-05-14T02:14:53;10.70;99.90
12268;DHT22;6196;48.398;11.736;2023-05-14T02:17:20;10.80;99.90
12268;DHT22;6196;48.398;11.736;2023-05-14T02:19:47;10.80;99.90
12268;DHT22;6196;48.398;11.736;2023-05-14T02:22:14;10.80;99.90
12268;DHT22;6196;48.398;11.736;2023-05-14T02:24:40;10.90;99.90
12268;DHT22;6196;48.398;11.736;2023-05-14T02:27:08;10.90;99.90
12268;DHT22;6196;48.398;11.736;2023-05-14T02:29:34;10.90;99.90
12268;DHT22;6196;48.398;11.736;2023-05-14T02:32:01;10.80;99.90
12268;DHT22;6196;48.398;11.736;2023-05-14T02:34:28;10.80;99.90
12268;DHT22;6196;48.398;11.736;2023-05-14T02:36:55;10.90;99.90
12268;DHT22;6196;48.398;11.736;2023-05-14T02:39:22;10.90;99.90
12268;DHT22;6196;48.398;11.736;2023-05-14T02:41:49;10.80;99.90
12268;DHT22;6196;48.398;11.736;2023-05-14T02:44:16;10.90;99.90
12268;DHT22;6196;48.398;11.736;2023-05-14T02:46:43;10.80;99.90
12268;DHT22;6196;48.398;11.736;2023-05-14T02:49:10;10.90;99.90
12268;DHT22;6196;48.398;11.736;2023-05-14T02:51:36;10.90;99.90
12268;DHT22;6196;48.398;11.736;2023-05-14T02:54:03;10.90;99.90
12268;DHT22;6196;48.398;11.736;2023-05-14T02:56:30;10.90;99.90
12268;DHT22;6196;48.398;11.736;2023-05-14T02:58:57;10.90;99.90
12268;DHT22;6196;48.398;11.736;2023-05-14T03:01:24;10.90;99.90
12268;DHT22;6196;48.398;11.736;2023-05-14T03:03:52;10.80;99.90
12268;DHT22;6196;48.398;11.736;2023-05-14T03:06:19;10.80;99.90
12268;DHT22;6196;48.398;11.736;2023-05-14T03:08:45;10.80;99.90
12268;DHT22;6196;48.398;11.736;2023-05-14T03:11:12;10.80;99.90
12268;DHT22;6196;48.398;11.736;2023-05-14T03:13:39;10.80;99.90
12268;DHT22;6196;48.398;11.736;2023-05-14T03:16:06;10.70;99.90
12268;DHT22;6196;48.398;11.736;2023-05-14T03:18:33;10.80;99.90
12268;DHT22;6196;48.398;11.736;2023-05-14T03:21:02;10.80;99.90
12268;DHT22;6196;48.398;11.736;2023-05-14T03:23:29;10.90;99.90
12268;DHT22;6196;48.398;11.736;2023-05-14T03:26:00;10.80;99.90
12268;DHT22;6196;48.398;11.736;2023-05-14T03:28:27;10.90;99.90
12268;DHT22;6196;48.398;11.736;2023-05-14T03:30:54;10.90;99.90
12268;DHT22;6196;48.398;11.736;2023-05-14T03:33:21;10.90;99.90
12268;DHT22;6196;48.398;11.736;2023-05-14T03:35:49;10.80;99.90
12268;DHT22;6196;48.398;11.736;2023-05-14T03:38:16;10.90;99.90
12268;DHT22;6196;48.398;11.736;2023-05-14T03:40:44;10.80;99.90
12268;DHT22;6196;48.398;11.736;2023-05-14T03:43:11;10.80;99.90
12268;DHT22;6196;48.398;11.736;2023-05-14T03:45:38;10.80;99.90
12268;DHT22;6196;48.398;11.736;2023-05-14T03:48:05;10.80;99.90
12268;DHT22;6196;48.398;11.736;2023-05-14T03:50:32;10.80;99.90
12268;DHT22;6196;48.398;11.736;2023-05-14T03:52:59;10.80;99.90
12268;DHT22;6196;48.398;11.736;2023-05-14T03:55:26;10.80;99.90
12268;DHT22;6196;48.398;11.736;2023-05-14T03:57:53;10.80;99.90
12268;DHT22;6196;48.398;11.736;2023-05-14T04:00:19;10.80;99.90
12268;DHT22;6196;48.398;11.736;2023-05-14T04:02:47;10.80;99.90
12268;DHT22;6196;48.398;11.736;2023-05-14T04:05:14;10.70;99.90
12268;DHT22;6196;48.398;11.736;2023-05-14T04:07:41;10.60;99.90
12268;DHT22;6196;48.398;11.736;2023-05-14T04:10:08;10.70;99.90
12268;DHT22;6196;48.398;11.736;2023-05-14T04:12:35;10.70;99.90
12268;DHT22;6196;48.398;11.736;2023-05-14T04:15:02;10.70;99.90
12268;DHT22;6196;48.398;11.736;2023-05-14T04:17:29;10.70;99.90
12268;DHT22;6196;48.398;11.736;2023-05-14T04:19:56;10.70;99.90
12268;DHT22;6196;48.398;11.736;2023-05-14T04:22:23;10.70;99.90
12268;DHT22;6196;48.398;11.736;2023-05-14T04:24:49;10.70;99.90
12268;DHT22;6196;48.398;11.736;2023-05-14T04:27:20;10.70;99.90
12268;DHT22;6196;48.398;11.736;2023-05-14T04:29:48;10.70;99.90
12268;DHT22;6196;48.398;11.736;2023-05-14T04:32:16;10.80;99.90
12268;DHT22;6196;48.398;11.736;2023-05-14T04:34:43;10.70;99.90
12268;DHT22;6196;48.398;11.736;2023-05-14T04:37:10;10.80;99.90
12268;DHT22;6196;48.398;11.736;2023-05-14T04:39:37;10.70;99.90
12268;DHT22;6196;48.398;11.736;2023-05-14T04:42:04;10.80;99.90
12268;DHT22;6196;48.398;11.736;2023-05-14T04:44:33;10.80;99.90
12268;DHT22;6196;48.398;11.736;2023-05-14T04:47:00;10.80;99.90
12268;DHT22;6196;48.398;11.736;2023-05-14T04:49:28;10.70;99.90
12268;DHT22;6196;48.398;11.736;2023-05-14T04:51:56;10.80;99.90
12268;DHT22;6196;48.398;11.736;2023-05-14T04:54:22;10.90;99.90
12268;DHT22;6196;48.398;11.736;2023-05-14T04:56:49;10.90;99.90
12268;DHT22;6196;48.398;11.736;2023-05-14T04:59:16;11.00;99.90
12268;DHT22;6196;48.398;11.736;2023-05-14T05:01:43;11.00;99.90
12268;DHT22;6196;48.398;11.736;2023-05-14T05:04:11;11.10;99.90
12268;DHT22;6196;48.398;11.736;2023-05-14T05:06:38;11.00;99.90
12268;DHT22;6196;48.398;11.736;2023-05-14T05:09:05;11.20;99.90
12268;DHT22;6196;48.398;11.736;2023-05-14T05:11:34;11.20;99.90
12268;DHT22;6196;48.398;11.736;2023-05-14T05:14:01;11.20;99.90
12268;DHT22;6196;48.398;11.736;2023-05-14T05:16:27;11.20;99.90
12268;DHT22;6196;48.398;11.736;2023-05-14T05:18:54;11.20;99.90
12268;DHT22;6196;48.398;11.736;2023-05-14T05:21:22;11.20;99.90
12268;DHT22;6196;48.398;11.736;2023-05-14T05:23:49;11.30;99.90
12268;DHT22;6196;48.398;11.736;2023-05-14T05:26:16;11.20;99.90
12268;DHT22;6196;48.398;11.736;2023-05-14T05:28:42;11.20;99.90
12268;DHT22;6196;48.398;11.736;2023-05-14T05:31:09;11.30;99.90
12268;DHT22;6196;48.398;11.736;2023-05-14T05:33:36;11.40;99.90
12268;DHT22;6196;48.398;11.736;2023-05-14T05:36:03;11.40;99.90
12268;DHT22;6196;48.398;11.736;2023-05-14T05:38:30;11.50;99.90
12268;DHT22;6196;48.398;11.736;2023-05-14T05:40:57;11.50;99.90
12268;DHT22;6196;48.398;11.736;2023-05-14T05:43:24;11.60;99.90
12268;DHT22;6196;48.398;11.736;2023-05-14T05:45:51;11.50;99.90
12268;DHT22;6196;48.398;11.736;2023-05-14T05:48:18;11.60;99.90
12268;DHT22;6196;48.398;11.736;2023-05-14T05:50:49;11.60;99.90
12268;DHT22;6196;48.398;11.736;2023-05-14T05:53:16;11.60;99.90
12268;DHT22;6196;48.398;11.736;2023-05-14T05:55:43;11.70;99.90
12268;DHT22;6196;48.398;11.736;2023-05-14T05:58:10;11.70;99.90
12268;DHT22;6196;48.398;11.736;2023-05-14T06:00:39;11.70;99.90
12268;DHT22;6196;48.398;11.736;2023-05-14T06:03:06;11.70;99.90
12268;DHT22;6196;48.398;11.736;2023-05-14T06:05:33;11.60;99.90
12268;DHT22;6196;48.398;11.736;2023-05-14T06:08:00;11.60;99.90
12268;DHT22;6196;48.398;11.736;2023-05-14T06:10:27;11.50;99.90
12268;DHT22;6196;48.398;11.736;2023-05-14T06:12:54;11.40;99.90
12268;DHT22;6196;48.398;11.736;2023-05-14T06:15:22;11.40;99.90
12268;DHT22;6196;48.398;11.736;2023-05-14T06:17:49;11.50;99.90
12268;DHT22;6196;48.398;11.736;2023-05-14T06:20:16;11.50;99.90
12268;DHT22;6196;48.398;11.736;2023-05-14T06:22:42;11.40;99.90
12268;DHT22;6196;48.398;11.736;2023-05-14T06:25:10;11.40;99.90
12268;DHT22;6196;48.398;11.736;2023-05-14T06:27:37;11.40;99.90
12268;DHT22;6196;48.398;11.736;2023-05-14T06:30:04;11.40;99.90
12268;DHT22;6196;48.398;11.736;2023-05-14T06:32:32;11.60;99.90
12268;DHT22;6196;48.398;11.736;2023-05-14T06:34:59;11.50;99.90
12268;DHT22;6196;48.398;11.736;2023-05-14T06:37:26;11.40;99.90
12268;DHT22;6196;48.398;11.736;2023-05-14T06:39:52;11.50;99.90
12268;DHT22;6196;48.398;11.736;2023-05-14T06:42:23;11.60;99.90
12268;DHT22;6196;48.398;11.736;2023-05-14T06:44:50;11.80;99.90
12268;DHT22;6196;48.398;11.736;2023-05-14T06:47:17;11.90;99.90
12268;DHT22;6196;48.398;11.736;2023-05-14T06:49:43;12.10;99.90
12268;DHT22;6196;48.398;11.736;2023-05-14T06:52:10;12.20;99.90
12268;DHT22;6196;48.398;11.736;2023-05-14T06:54:37;12.20;99.90
12268;DHT22;6196;48.398;11.736;2023-05-14T06:57:05;12.20;99.90
12268;DHT22;6196;48.398;11.736;2023-05-14T06:59:31;12.20;99.90
12268;DHT22;6196;48.398;11.736;2023-05-14T07:01:58;12.10;99.90
12268;DHT22;6196;48.398;11.736;2023-05-14T07:04:25;12.20;99.90
12268;DHT22;6196;48.398;11.736;2023-05-14T07:06:52;12.30;99.90
12268;DHT22;6196;48.398;11.736;2023-05-14T07:09:19;12.40;99.90
12268;DHT22;6196;48.398;11.736;2023-05-14T07:11:47;12.70;99.90
12268;DHT22;6196;48.398;11.736;2023-05-14T07:14:14;12.80;99.90
12268;DHT22;6196;48.398;11.736;2023-05-14T07:16:41;13.00;99.90
12268;DHT22;6196;48.398;11.736;2023-05-14T07:19:08;13.10;99.90
12268;DHT22;6196;48.398;11.736;2023-05-14T07:21:35;13.00;99.90
12268;DHT22;6196;48.398;11.736;2023-05-14T07:24:02;12.90;99.90
12268;DHT22;6196;48.398;11.736;2023-05-14T07:26:29;12.90;99.90
12268;DHT22;6196;48.398;11.736;2023-05-14T07:28:57;13.20;99.90
12268;DHT22;6196;48.398;11.736;2023-05-14T07:31:23;13.40;99.90
12268;DHT22;6196;48.398;11.736;2023-05-14T07:33:50;13.70;99.90
12268;DHT22;6196;48.398;11.736;2023-05-14T07:36:17;13.80;99.90
12268;DHT22;6196;48.398;11.736;2023-05-14T07:38:44;13.90;99.90
12268;DHT22;6196;48.398;11.736;2023-05-14T07:41:11;14.00;99.90
12268;DHT22;6196;48.398;11.736;2023-05-14T07:43:38;14.00;99.90
12268;DHT22;6196;48.398;11.736;2023-05-14T07:46:06;13.90;99.90
12268;DHT22;6196;48.398;11.736;2023-05-14T07:48:33;13.80;99.90
12268;DHT22;6196;48.398;11.736;2023-05-14T07:50:59;13.90;99.90
12268;DHT22;6196;48.398;11.736;2023-05-14T07:53:26;13.70;99.90
12268;DHT22;6196;48.398;11.736;2023-05-14T07:55:53;13.90;99.90
12268;DHT22;6196;48.398;11.736;2023-05-14T07:58:20;14.20;99.90
12268;DHT22;6196;48.398;11.736;2023-05-14T08:00:47;14.40;99.90
12268;DHT22;6196;48.398;11.736;2023-05-14T08:03:14;14.40;99.90
12268;DHT22;6196;48.398;11.736;2023-05-14T08:05:41;14.10;99.90
12268;DHT22;6196;48.398;11.736;2023-05-14T08:08:08;14.00;99.90
12268;DHT22;6196;48.398;11.736;2023-05-14T08:10:35;14.20;99.90
12268;DHT22;6196;48.398;11.736;2023-05-14T08:13:02;14.20;99.90
12268;DHT22;6196;48.398;11.736;2023-05-14T08:15:29;14.20;99.90
12268;DHT22;6196;48.398;11.736;2023-05-14T08:17:56;14.10;99.90
12268;DHT22;6196;48.398;11.736;2023-05-14T08:20:29;13.90;99.90
12268;DHT22;6196;48.398;11.736;2023-05-14T08:22:56;14.20;99.90
12268;DHT22;6196;48.398;11.736;2023-05-14T08:25:23;14.10;99.90
12268;DHT22;6196;48.398;11.736;2023-05-14T08:27:50;14.10;99.90
12268;DHT22;6196;48.398;11.736;2023-05-14T08:30:19;13.90;99.90
12268;DHT22;6196;48.398;11.736;2023-05-14T08:32:47;14.10;99.90
12268;DHT22;6196;48.398;11.736;2023-05-14T08:35:15;14.40;99.90
12268;DHT22;6196;48.398;11.736;2023-05-14T08:37:43;14.80;99.90
12268;DHT22;6196;48.398;11.736;2023-05-14T08:40:11;15.10;99.90
12268;DHT22;6196;48.398;11.736;2023-05-14T08:42:38;15.30;99.90
12268;DHT22;6196;48.398;11.736;2023-05-14T08:45:19;15.50;99.90
12268;DHT22;6196;48.398;11.736;2023-05-14T08:47:48;15.70;99.90
12268;DHT22;6196;48.398;11.736;2023-05-14T08:50:17;15.60;99.90
12268;DHT22;6196;48.398;11.736;2023-05-14T08:52:49;15.30;99.90
12268;DHT22;6196;48.398;11.736;2023-05-14T08:55:16;15.00;99.90
12268;DHT22;6196;48.398;11.736;2023-05-14T08:57:43;14.80;99.90
12268;DHT22;6196;48.398;11.736;2023-05-14T09:00:10;14.80;99.90
12268;DHT22;6196;48.398;11.736;2023-05-14T09:02:41;14.80;99.90
12268;DHT22;6196;48.398;11.736;2023-05-14T09:05:10;14.50;99.90
12268;DHT22;6196;48.398;11.736;2023-05-14T09:07:37;14.60;99.90
12268;DHT22;6196;48.398;11.736;2023-05-14T09:10:05;14.70;99.90
12268;DHT22;6196;48.398;11.736;2023-05-14T09:12:34;14.90;99.90
12268;DHT22;6196;48.398;11.736;2023-05-14T09:15:01;15.10;99.90
12268;DHT22;6196;48.398;11.736;2023-05-14T09:17:28;15.30;99.90
12268;DHT22;6196;48.398;11.736;2023-05-14T09:19:55;15.30;99.90
12268;DHT22;6196;48.398;11.736;2023-05-14T09:22:22;15.60;99.90
12268;DHT22;6196;48.398;11.736;2023-05-14T09:25:08;15.80;99.90
12268;DHT22;6196;48.398;11.736;2023-05-14T09:27:38;16.10;99.90
12268;DHT22;6196;48.398;11.736;2023-05-14T09:30:10;16.00;99.90
12268;DHT22;6196;48.398;11.736;2023-05-14T09:32:39;15.80;99.90
12268;DHT22;6196;48.398;11.736;2023-05-14T09:37:51;15.40;99.90
12268;DHT22;6196;48.398;11.736;2023-05-14T09:40:21;15.40;99.90
12268;DHT22;6196;48.398;11.736;2023-05-14T09:42:50;15.60;99.90
12268;DHT22;6196;48.398;11.736;2023-05-14T09:45:17;15.50;99.90
12268;DHT22;6196;48.398;11.736;2023-05-14T09:47:44;15.60;99.90
12268;DHT22;6196;48.398;11.736;2023-05-14T09:50:11;15.80;99.90
12268;DHT22;6196;48.398;11.736;2023-05-14T09:52:38;15.70;99.90
12268;DHT22;6196;48.398;11.736;2023-05-14T09:55:06;15.70;99.90
12268;DHT22;6196;48.398;11.736;2023-05-14T09:57:35;15.90;99.90
12268;DHT22;6196;48.398;11.736;2023-05-14T10:00:03;16.00;99.90
12268;DHT22;6196;48.398;11.736;2023-05-14T10:02:35;16.10;99.90
12268;DHT22;6196;48.398;11.736;2023-05-14T10:05:07;16.00;99.90
12268;DHT22;6196;48.398;11.736;2023-05-14T10:07:41;15.70;99.90
12268;DHT22;6196;48.398;11.736;2023-05-14T10:10:15;15.60;99.90
12268;DHT22;6196;48.398;11.736;2023-05-14T10:12:56;15.60;99.90
12268;DHT22;6196;48.398;11.736;2023-05-14T10:15:33;15.60;99.90
12268;DHT22;6196;48.398;11.736;2023-05-14T10:18:09;15.80;99.90
12268;DHT22;6196;48.398;11.736;2023-05-14T10:20:39;16.00;99.90
12268;DHT22;6196;48.398;11.736;2023-05-14T10:23:06;15.90;99.90
12268;DHT22;6196;48.398;11.736;2023-05-14T10:25:34;15.50;99.90
12268;DHT22;6196;48.398;11.736;2023-05-14T10:28:02;15.60;99.90
12268;DHT22;6196;48.398;11.736;2023-05-14T10:30:31;15.40;99.90
12268;DHT22;6196;48.398;11.736;2023-05-14T10:33:06;15.50;99.90
12268;DHT22;6196;48.398;11.736;2023-05-14T10:36:00;15.50;99.90
12268;DHT22;6196;48.398;11.736;2023-05-14T10:38:33;15.40;99.90
12268;DHT22;6196;48.398;11.736;2023-05-14T10:41:05;15.40;99.90
12268;DHT22;6196;48.398;11.736;2023-05-14T10:43:37;15.20;99.90
12268;DHT22;6196;48.398;11.736;2023-05-14T10:46:06;14.80;99.90
12268;DHT22;6196;48.398;11.736;2023-05-14T10:48:36;14.80;99.90
12268;DHT22;6196;48.398;11.736;2023-05-14T10:51:09;14.80;99.90
12268;DHT22;6196;48.398;11.736;2023-05-14T10:53:41;15.10;99.90
12268;DHT22;6196;48.398;11.736;2023-05-14T10:56:10;15.30;99.90
12268;DHT22;6196;48.398;11.736;2023-05-14T10:58:42;15.40;99.90
12268;DHT22;6196;48.398;11.736;2023-05-14T11:01:11;15.30;99.90
12268;DHT22;6196;48.398;11.736;2023-05-14T11:03:43;15.30;99.90
12268;DHT22;6196;48.398;11.736;2023-05-14T11:06:13;15.40;99.90
12268;DHT22;6196;48.398;11.736;2023-05-14T11:08:41;15.30;99.90
12268;DHT22;6196;48.398;11.736;2023-05-14T11:11:08;15.30;99.90
12268;DHT22;6196;48.398;11.736;2023-05-14T11:13:36;15.30;99.90
12268;DHT22;6196;48.398;11.736;2023-05-14T11:16:04;15.40;99.90
12268;DHT22;6196;48.398;11.736;2023-05-14T11:18:52;15.20;99.90
12268;DHT22;6196;48.398;11.736;2023-05-14T11:21:28;15.20;99.90
12268;DHT22;6196;48.398;11.736;2023-05-14T11:23:55;14.70;99.90
12268;DHT22;6196;48.398;11.736;2023-05-14T11:26:23;14.70;99.90
12268;DHT22;6196;48.398;11.736;2023-05-14T11:28:50;15.10;99.90
12268;DHT22;6196;48.398;11.736;2023-05-14T11:31:17;15.20;99.90
12268;DHT22;6196;48.398;11.736;2023-05-14T11:33:44;15.80;99.90
12268;DHT22;6196;48.398;11.736;2023-05-14T11:36:11;16.20;99.90
12268;DHT22;6196;48.398;11.736;2023-05-14T11:38:46;16.40;99.90
12268;DHT22;6196;48.398;11.736;2023-05-14T11:41:17;16.60;99.90
12268;DHT22;6196;48.398;11.736;2023-05-14T11:43:47;16.90;99.90
12268;DHT22;6196;48.398;11.736;2023-05-14T11:46:17;17.20;99.90
12268;DHT22;6196;48.398;11.736;2023-05-14T11:48:44;17.60;99.90
12268;DHT22;6196;48.398;11.736;2023-05-14T11:51:11;17.90;99.90
12268;DHT22;6196;48.398;11.736;2023-05-14T11:53:38;18.00;99.90
12268;DHT22;6196;48.398;11.736;2023-05-14T11:56:05;18.10;99.90
12268;DHT22;6196;48.398;11.736;2023-05-14T11:58:35;18.80;99.90
12268;DHT22;6196;48.398;11.736;2023-05-14T12:01:02;19.40;99.90
12268;DHT22;6196;48.398;11.736;2023-05-14T12:03:29;19.40;99.90
12268;DHT22;6196;48.398;11.736;2023-05-14T12:05:58;19.80;99.90
12268;DHT22;6196;48.398;11.736;2023-05-14T12:10:55;18.80;99.90
12268;DHT22;6196;48.398;11.736;2023-05-14T12:13:27;19.60;99.90
12268;DHT22;6196;48.398;11.736;2023-05-14T12:16:00;19.90;99.90
12268;DHT22;6196;48.398;11.736;2023-05-14T12:18:29;20.40;99.90
12268;DHT22;6196;48.398;11.736;2023-05-14T12:21:04;20.30;99.90
12268;DHT22;6196;48.398;11.736;2023-05-14T12:23:34;20.30;99.90
12268;DHT22;6196;48.398;11.736;2023-05-14T12:26:05;20.60;99.90
12268;DHT22;6196;48.398;11.736;2023-05-14T12:28:34;20.30;99.90
12268;DHT22;6196;48.398;11.736;2023-05-14T12:31:04;20.60;99.90
12268;DHT22;6196;48.398;11.736;2023-05-14T12:33:32;20.40;99.90
12268;DHT22;6196;48.398;11.736;2023-05-14T12:35:59;20.00;99.90
12268;DHT22;6196;48.398;11.736;2023-05-14T12:38:32;20.60;99.90
12268;DHT22;6196;48.398;11.736;2023-05-14T12:40:59;21.40;99.90
12268;DHT22;6196;48.398;11.736;2023-05-14T12:43:27;21.70;99.90
12268;DHT22;6196;48.398;11.736;2023-05-14T12:45:56;21.20;99.90
12268;DHT22;6196;48.398;11.736;2023-05-14T12:48:23;21.00;99.90
12268;DHT22;6196;48.398;11.736;2023-05-14T12:50:50;21.20;99.90
12268;DHT22;6196;48.398;11.736;2023-05-14T12:53:17;21.60;99.90
12268;DHT22;6196;48.398;11.736;2023-05-14T12:55:44;21.50;99.90
12268;DHT22;6196;48.398;11.736;2023-05-14T12:58:11;21.20;99.90
12268;DHT22;6196;48.398;11.736;2023-05-14T13:00:38;21.00;99.90
12268;DHT22;6196;48.398;11.736;2023-05-14T13:03:05;21.20;99.90
12268;DHT22;6196;48.398;11.736;2023-05-14T13:05:32;21.20;99.90
12268;DHT22;6196;48.398;11.736;2023-05-14T13:07:59;20.90;99.90
12268;DHT22;6196;48.398;11.736;2023-05-14T13:10:29;20.70;99.90
12268;DHT22;6196;48.398;11.736;2023-05-14T13:12:56;20.60;99.90
12268;DHT22;6196;48.398;11.736;2023-05-14T13:15:23;20.00;99.90
12268;DHT22;6196;48.398;11.736;2023-05-14T13:17:50;19.10;99.90
12268;DHT22;6196;48.398;11.736;2023-05-14T13:20:17;19.60;99.90
12268;DHT22;6196;48.398;11.736;2023-05-14T13:22:44;20.00;99.90
12268;DHT22;6196;48.398;11.736;2023-05-14T13:25:11;20.40;99.90
12268;DHT22;6196;48.398;11.736;2023-05-14T13:27:38;20.40;99.90
12268;DHT22;6196;48.398;11.736;2023-05-14T13:30:05;20.40;99.90
12268;DHT22;6196;48.398;11.736;2023-05-14T13:32:33;20.60;99.90
12268;DHT22;6196;48.398;11.736;2023-05-14T13:35:00;21.20;99.90
12268;DHT22;6196;48.398;11.736;2023-05-14T13:37:27;21.90;99.90
12268;DHT22;6196;48.398;11.736;2023-05-14T13:39:54;22.40;99.90
12268;DHT22;6196;48.398;11.736;2023-05-14T13:42:21;22.00;99.90
12268;DHT22;6196;48.398;11.736;2023-05-14T13:44:49;21.80;99.90
12268;DHT22;6196;48.398;11.736;2023-05-14T13:47:16;21.40;99.90
12268;DHT22;6196;48.398;11.736;2023-05-14T13:49:43;21.10;99.90
12268;DHT22;6196;48.398;11.736;2023-05-14T13:52:09;20.70;99.90
12268;DHT22;6196;48.398;11.736;2023-05-14T13:54:36;20.50;99.90
12268;DHT22;6196;48.398;11.736;2023-05-14T13:57:03;20.10;99.90
12268;DHT22;6196;48.398;11.736;2023-05-14T13:59:31;20.10;99.90
12268;DHT22;6196;48.398;11.736;2023-05-14T14:01:57;20.50;99.90
12268;DHT22;6196;48.398;11.736;2023-05-14T14:04:25;21.40;99.90
12268;DHT22;6196;48.398;11.736;2023-05-14T14:06:54;21.90;99.90
12268;DHT22;6196;48.398;11.736;2023-05-14T14:09:22;21.40;99.90
12268;DHT22;6196;48.398;11.736;2023-05-14T14:11:49;21.60;99.90
12268;DHT22;6196;48.398;11.736;2023-05-14T14:14:17;22.20;99.90
12268;DHT22;6196;48.398;11.736;2023-05-14T14:16:44;21.90;99.90
12268;DHT22;6196;48.398;11.736;2023-05-14T14:19:10;21.70;99.90
12268;DHT22;6196;48.398;11.736;2023-05-14T14:21:37;22.30;99.90
12268;DHT22;6196;48.398;11.736;2023-05-14T14:24:08;22.50;99.90
12268;DHT22;6196;48.398;11.736;2023-05-14T14:26:35;22.20;99.90
12268;DHT22;6196;48.398;11.736;2023-05-14T14:29:02;22.20;99.90
12268;DHT22;6196;48.398;11.736;2023-05-14T14:31:29;22.80;99.90
12268;DHT22;6196;48.398;11.736;2023-05-14T14:33:56;23.60;99.90
12268;DHT22;6196;48.398;11.736;2023-05-14T14:36:23;24.20;99.90
12268;DHT22;6196;48.398;11.736;2023-05-14T14:38:49;24.30;99.90
12268;DHT22;6196;48.398;11.736;2023-05-14T14:41:17;23.80;99.90
12268;DHT22;6196;48.398;11.736;2023-05-14T14:43:43;23.50;99.90
12268;DHT22;6196;48.398;11.736;2023-05-14T14:46:10;22.60;99.90
12268;DHT22;6196;48.398;11.736;2023-05-14T14:48:37;22.20;99.90
12268;DHT22;6196;48.398;11.736;2023-05-14T14:51:05;22.40;99.90
12268;DHT22;6196;48.398;11.736;2023-05-14T14:53:33;23.10;99.90
12268;DHT22;6196;48.398;11.736;2023-05-14T14:56:01;22.80;99.90
12268;DHT22;6196;48.398;11.736;2023-05-14T14:58:28;22.60;99.90
12268;DHT22;6196;48.398;11.736;2023-05-14T15:00:56;22.30;99.90
12268;DHT22;6196;48.398;11.736;2023-05-14T15:03:23;22.20;99.90
12268;DHT22;6196;48.398;11.736;2023-05-14T15:05:51;21.80;99.90
12268;DHT22;6196;48.398;11.736;2023-05-14T15:08:23;21.60;99.90
12268;DHT22;6196;48.398;11.736;2023-05-14T15:10:51;20.80;99.90
12268;DHT22;6196;48.398;11.736;2023-05-14T15:13:18;19.80;99.90
12268;DHT22;6196;48.398;11.736;2023-05-14T15:15:45;18.80;99.90
12268;DHT22;6196;48.398;11.736;2023-05-14T15:18:12;18.10;99.90
12268;DHT22;6196;48.398;11.736;2023-05-14T15:20:39;17.30;99.90
12268;DHT22;6196;48.398;11.736;2023-05-14T15:23:06;17.10;99.90
12268;DHT22;6196;48.398;11.736;2023-05-14T15:25:33;16.80;99.90
12268;DHT22;6196;48.398;11.736;2023-05-14T15:28:00;16.70;99.90
12268;DHT22;6196;48.398;11.736;2023-05-14T15:30:27;16.00;99.90
12268;DHT22;6196;48.398;11.736;2023-05-14T15:32:54;15.60;99.90
12268;DHT22;6196;48.398;11.736;2023-05-14T15:35:21;15.40;99.90
12268;DHT22;6196;48.398;11.736;2023-05-14T15:37:48;15.30;99.90
12268;DHT22;6196;48.398;11.736;2023-05-14T15:40:17;14.90;99.90
12268;DHT22;6196;48.398;11.736;2023-05-14T15:42:44;14.90;99.90
12268;DHT22;6196;48.398;11.736;2023-05-14T15:45:12;14.50;99.90